CPX208 Details

Departure: Miami International Airport (KMIA) at 1700 UTC
Arrival: Los Angeles International Airport (KLAX) at 2130 UTC
Route: WINCO2 WINCO J73 LBV SRQ Q100 LEV J86 ELP J50 SSO J4 MESSI ESTWD HLYWD1


Current Weather Information
KMIA 250953Z 05005KT 10SM SCT033 25/18 A3003 RMK AO2 SLP170 T02500178 $
KLAX 250953Z 28004KT 10SM FEW010 FEW020 14/12 A2989 RMK AO2 SLP120 T01440122